Time;durP1;ratioP1;P1;durP2;ratioP2;P2;SDS_P1;SDS_P2;PMS_P1;PMS_P2;Temp;Humidity;BMP_temperature;BMP_pressure;BME280_temperature;BME280_humidity;BME280_pressure;Samples;Min_cycle;Max_cycle;Signal;HPM_P1;HPM_P2
2022/02/13 00:01:10;;;;;;;3.60;2.90;;;5.70;99.90;;;;;;5034781;28;20243;-53
2022/02/13 00:03:38;;;;;;;3.40;2.60;;;5.70;99.90;;;;;;5040431;28;20221;-52
2022/02/13 00:06:08;;;;;;;3.30;2.70;;;5.70;99.90;;;;;;5018889;28;20201;-51
2022/02/13 00:08:36;;;;;;;3.40;2.20;;;5.70;99.90;;;;;;5028989;28;20283;-51
2022/02/13 00:11:17;;;;;;;3.13;2.80;;;5.70;99.90;;;;;;5030041;28;20211;-55
2022/02/13 00:13:47;;;;;;;2.50;2.15;;;5.70;99.90;;;;;;5018633;28;20276;-52
2022/02/13 00:16:15;;;;;;;5.60;3.10;;;5.70;99.90;;;;;;5027840;28;20181;-52
2022/02/13 00:18:43;;;;;;;4.70;3.08;;;5.70;99.90;;;;;;5024390;28;20827;-52
2022/02/13 00:21:32;;;;;;;3.30;2.80;;;5.70;99.90;;;;;;5014497;28;20685;-53
2022/02/13 00:24:01;;;;;;;3.10;2.80;;;5.70;99.90;;;;;;5032567;28;20272;-52
2022/02/13 00:26:30;;;;;;;4.15;2.92;;;5.60;99.90;;;;;;5031969;28;20783;-51
2022/02/13 00:28:58;;;;;;;4.00;2.70;;;5.70;99.90;;;;;;5028427;28;20211;-52
2022/02/13 00:31:26;;;;;;;3.20;2.85;;;5.60;99.90;;;;;;5053109;28;20213;-52
2022/02/13 00:33:55;;;;;;;3.90;3.22;;;5.60;99.90;;;;;;5044452;28;20252;-53
2022/02/13 00:36:24;;;;;;;4.47;2.90;;;5.60;99.90;;;;;;5039082;28;20198;-52
2022/02/13 00:38:52;;;;;;;2.78;2.03;;;5.60;99.90;;;;;;5052057;28;20227;-53
2022/02/13 00:41:21;;;;;;;2.78;2.58;;;5.60;99.90;;;;;;5044067;28;20557;-53
2022/02/13 00:43:50;;;;;;;3.33;2.38;;;5.60;99.90;;;;;;5014080;28;20232;-53
2022/02/13 00:46:19;;;;;;;3.30;2.42;;;5.60;99.90;;;;;;5032154;28;20190;-55
2022/02/13 00:48:47;;;;;;;6.03;3.15;;;5.60;99.90;;;;;;5027024;28;20313;-54
2022/02/13 00:51:15;;;;;;;3.30;2.28;;;5.60;99.90;;;;;;5033143;28;20193;-54
2022/02/13 00:53:44;;;;;;;3.53;2.67;;;5.60;99.90;;;;;;5044948;28;20299;-50
2022/02/13 00:56:12;;;;;;;3.70;2.60;;;5.60;99.90;;;;;;5047744;28;20220;-55
2022/02/13 00:58:40;;;;;;;3.65;2.88;;;5.60;99.90;;;;;;5011924;28;20244;-53
2022/02/13 01:01:10;;;;;;;3.72;2.67;;;5.60;99.90;;;;;;5022392;28;20592;-52
2022/02/13 01:03:38;;;;;;;4.63;2.63;;;5.60;99.90;;;;;;5026853;28;20218;-52
2022/02/13 01:06:06;;;;;;;2.97;2.67;;;5.60;99.90;;;;;;5020492;28;20242;-52
2022/02/13 01:08:34;;;;;;;3.50;2.30;;;5.60;99.90;;;;;;5031529;28;20235;-53
2022/02/13 01:11:03;;;;;;;2.85;2.65;;;5.60;99.90;;;;;;5031725;28;20589;-53
2022/02/13 01:13:32;;;;;;;4.57;3.00;;;5.60;99.90;;;;;;5023234;28;20791;-53
2022/02/13 01:16:00;;;;;;;3.45;3.15;;;5.60;99.90;;;;;;5019269;28;20189;-51
2022/02/13 01:18:29;;;;;;;3.50;2.33;;;5.60;99.90;;;;;;5030243;28;20233;-51
2022/02/13 01:20:59;;;;;;;2.50;2.28;;;5.60;99.90;;;;;;5031471;28;20243;-54
2022/02/13 01:23:29;;;;;;;2.97;2.47;;;5.60;99.90;;;;;;5040072;28;20695;-54
2022/02/13 01:25:57;;;;;;;3.13;2.92;;;5.60;99.90;;;;;;5051096;28;20189;-54
2022/02/13 01:28:25;;;;;;;2.55;2.30;;;5.60;99.90;;;;;;5005377;28;20232;-54
2022/02/13 01:30:57;;;;;;;3.20;2.90;;;5.60;99.90;;;;;;5016435;28;20731;-53
2022/02/13 01:33:26;;;;;;;2.45;2.15;;;5.60;99.90;;;;;;5028130;28;20221;-52
2022/02/13 01:35:56;;;;;;;3.88;3.08;;;5.60;99.90;;;;;;5016345;28;20196;-52
2022/02/13 01:38:24;;;;;;;3.15;2.40;;;5.60;99.90;;;;;;5031118;28;20221;-50
2022/02/13 01:40:53;;;;;;;3.50;2.90;;;5.60;99.90;;;;;;5034867;28;20263;-54
2022/02/13 01:43:21;;;;;;;7.07;3.40;;;5.50;99.90;;;;;;5041035;28;20244;-52
2022/02/13 01:45:49;;;;;;;3.65;2.63;;;5.60;99.90;;;;;;5030707;28;20240;-51
2022/02/13 01:48:17;;;;;;;2.85;2.60;;;5.50;99.90;;;;;;5011343;28;20240;-55
2022/02/13 01:50:49;;;;;;;3.63;2.30;;;5.50;99.90;;;;;;5015173;28;20632;-55
2022/02/13 01:53:38;;;;;;;3.85;2.53;;;5.60;99.90;;;;;;5030194;28;20565;-51
2022/02/13 01:56:06;;;;;;;3.47;2.47;;;5.60;99.90;;;;;;5030412;28;20189;-52
2022/02/13 01:58:35;;;;;;;3.78;3.15;;;5.50;99.90;;;;;;5008617;28;20268;-54
2022/02/13 02:01:03;;;;;;;4.05;3.22;;;5.60;99.90;;;;;;5015987;28;20217;-53
2022/02/13 02:03:31;;;;;;;3.72;2.65;;;5.50;99.90;;;;;;5026835;28;20473;-52
2022/02/13 02:05:59;;;;;;;3.35;2.08;;;5.60;99.90;;;;;;5014356;28;20186;-51
2022/02/13 02:08:27;;;;;;;4.22;2.30;;;5.50;99.90;;;;;;5030576;28;20351;-53
2022/02/13 02:10:57;;;;;;;4.85;2.90;;;5.50;99.90;;;;;;5028982;28;20347;-54
2022/02/13 02:13:25;;;;;;;3.13;2.80;;;5.50;99.90;;;;;;5012322;28;20220;-52
2022/02/13 02:15:54;;;;;;;2.95;2.65;;;5.60;99.90;;;;;;5030009;28;20279;-52
2022/02/13 02:18:22;;;;;;;4.25;2.75;;;5.50;99.90;;;;;;5010565;28;20216;-51
2022/02/13 02:20:50;;;;;;;4.30;2.90;;;5.50;99.90;;;;;;5011598;28;20752;-51
2022/02/13 02:23:19;;;;;;;3.30;2.80;;;5.50;99.90;;;;;;5030010;28;20224;-53
2022/02/13 02:25:48;;;;;;;3.28;2.65;;;5.50;99.90;;;;;;5029831;28;20673;-52
2022/02/13 02:28:16;;;;;;;2.75;2.55;;;5.50;99.90;;;;;;5014135;28;20520;-50
2022/02/13 02:30:44;;;;;;;2.63;2.40;;;5.50;99.90;;;;;;5023600;28;20220;-52
2022/02/13 02:33:15;;;;;;;3.25;2.10;;;5.50;99.90;;;;;;5028528;28;20244;-54
2022/02/13 02:35:43;;;;;;;5.93;2.20;;;5.50;99.90;;;;;;5005007;28;20263;-55
2022/02/13 02:38:11;;;;;;;2.55;2.35;;;5.50;99.90;;;;;;5029234;28;20696;-56
2022/02/13 02:40:40;;;;;;;3.25;2.80;;;5.50;99.90;;;;;;5028436;28;20296;-53
2022/02/13 02:43:09;;;;;;;3.25;2.60;;;5.50;99.90;;;;;;5017522;28;20225;-51
2022/02/13 02:45:37;;;;;;;2.58;2.15;;;5.50;99.90;;;;;;5020594;28;20208;-56
2022/02/13 02:48:06;;;;;;;2.10;1.90;;;5.50;99.90;;;;;;5029796;28;20248;-55
2022/02/13 02:50:34;;;;;;;4.70;2.47;;;5.50;99.90;;;;;;5003800;28;20232;-52
2022/02/13 02:53:04;;;;;;;2.45;2.05;;;5.50;99.90;;;;;;5029709;28;20842;-52
2022/02/13 02:55:32;;;;;;;3.70;2.75;;;5.50;99.90;;;;;;4995057;28;20247;-50
2022/02/13 02:58:03;;;;;;;2.83;2.53;;;5.50;99.90;;;;;;5016571;28;20221;-53
2022/02/13 03:00:32;;;;;;;3.42;2.63;;;5.50;99.90;;;;;;5021010;28;20651;-53
2022/02/13 03:03:00;;;;;;;3.65;2.83;;;5.50;99.90;;;;;;5029462;28;20295;-53
2022/02/13 03:05:29;;;;;;;4.95;2.53;;;5.50;99.90;;;;;;5019469;28;20224;-51
2022/02/13 03:07:57;;;;;;;3.72;2.75;;;5.40;99.90;;;;;;5029514;28;20308;-54
2022/02/13 03:10:26;;;;;;;2.83;2.63;;;5.50;99.90;;;;;;5029165;28;20216;-53
2022/02/13 03:12:54;;;;;;;3.38;2.67;;;5.50;99.90;;;;;;5027833;28;20239;-54
2022/02/13 03:15:25;;;;;;;2.90;2.60;;;5.40;99.90;;;;;;5028811;28;20189;-51
2022/02/13 03:17:54;;;;;;;3.50;2.60;;;5.40;99.90;;;;;;5030224;28;20347;-52
2022/02/13 03:20:22;;;;;;;3.75;2.65;;;5.40;99.90;;;;;;5020988;28;20304;-53
2022/02/13 03:22:50;;;;;;;3.17;2.50;;;5.40;99.90;;;;;;5028660;28;20691;-54
2022/02/13 03:25:18;;;;;;;3.63;2.30;;;5.40;99.90;;;;;;5028725;28;20235;-53
2022/02/13 03:27:46;;;;;;;7.18;3.30;;;5.40;99.90;;;;;;5018531;28;20221;-53
2022/02/13 03:30:14;;;;;;;2.83;2.53;;;5.40;99.90;;;;;;5029155;28;20259;-52
2022/02/13 03:32:44;;;;;;;2.08;1.98;;;5.40;99.90;;;;;;5031923;28;20248;-51
2022/02/13 03:35:12;;;;;;;1.98;1.80;;;5.50;99.90;;;;;;5015796;28;20719;-52
2022/02/13 03:37:42;;;;;;;2.53;2.30;;;5.50;99.90;;;;;;5010914;28;20705;-54
2022/02/13 03:40:12;;;;;;;2.40;2.05;;;5.50;99.90;;;;;;5027436;28;20708;-54
2022/02/13 03:42:40;;;;;;;1.85;1.75;;;5.50;99.90;;;;;;5019230;28;20234;-55
2022/02/13 03:45:09;;;;;;;2.38;2.22;;;5.50;99.90;;;;;;5028996;28;20251;-54
2022/02/13 03:47:39;;;;;;;4.47;2.63;;;5.50;99.90;;;;;;5028425;28;20260;-50
2022/02/13 03:50:12;;;;;;;2.70;2.50;;;5.50;99.90;;;;;;5018382;28;20694;-51
2022/02/13 03:52:40;;;;;;;1.92;1.70;;;5.50;99.90;;;;;;5028525;28;20306;-52
2022/02/13 03:55:11;;;;;;;2.97;1.90;;;5.50;99.90;;;;;;5028872;28;20268;-51
2022/02/13 03:57:39;;;;;;;2.30;2.00;;;5.50;99.90;;;;;;5018829;28;20264;-51
2022/02/13 04:00:09;;;;;;;3.45;2.20;;;5.50;99.90;;;;;;5028743;28;20557;-51
2022/02/13 04:02:40;;;;;;;2.47;2.28;;;5.50;99.90;;;;;;5027625;28;20308;-53
2022/02/13 04:05:11;;;;;;;2.50;2.30;;;5.50;99.90;;;;;;5028096;28;20212;-55
2022/02/13 04:07:40;;;;;;;3.70;2.47;;;5.50;99.90;;;;;;5030710;28;20246;-55
2022/02/13 04:10:09;;;;;;;2.28;2.08;;;5.50;99.90;;;;;;5048300;28;20292;-53
2022/02/13 04:12:37;;;;;;;2.00;1.90;;;5.50;99.90;;;;;;5018957;28;20578;-51
2022/02/13 04:15:08;;;;;;;2.88;1.88;;;5.40;99.90;;;;;;5028361;28;20189;-53
2022/02/13 04:17:36;;;;;;;2.22;2.03;;;5.50;99.90;;;;;;5028348;28;20312;-52
2022/02/13 04:20:05;;;;;;;4.68;3.05;;;5.50;99.90;;;;;;5023134;28;20270;-51
2022/02/13 04:22:35;;;;;;;2.35;2.03;;;5.40;99.90;;;;;;5048007;28;20319;-51
2022/02/13 04:25:03;;;;;;;4.15;2.63;;;5.50;99.90;;;;;;5008590;28;20213;-53
2022/02/13 04:27:32;;;;;;;3.92;2.33;;;5.40;99.90;;;;;;5008556;28;20312;-54
2022/02/13 04:30:00;;;;;;;4.55;2.97;;;5.40;99.90;;;;;;5014188;28;20217;-52
2022/02/13 04:32:28;;;;;;;2.95;2.20;;;5.40;99.90;;;;;;5028218;28;20233;-51
2022/02/13 04:34:58;;;;;;;3.05;2.53;;;5.40;99.90;;;;;;4995336;28;20198;-51
2022/02/13 04:37:26;;;;;;;2.58;2.03;;;5.40;99.90;;;;;;5024814;28;20224;-51
2022/02/13 04:39:55;;;;;;;3.22;2.40;;;5.40;99.90;;;;;;5028143;28;20287;-52
2022/02/13 04:42:24;;;;;;;3.13;2.83;;;5.40;99.90;;;;;;5028132;28;20221;-53
2022/02/13 04:44:52;;;;;;;2.78;2.00;;;5.40;99.90;;;;;;5018122;28;20244;-52
2022/02/13 04:47:20;;;;;;;2.58;1.90;;;5.40;99.90;;;;;;5028327;28;20233;-52
2022/02/13 04:49:51;;;;;;;2.60;2.08;;;5.40;99.90;;;;;;5020913;28;20688;-52
2022/02/13 04:52:19;;;;;;;2.25;1.75;;;5.40;99.90;;;;;;5028495;28;20697;-51
2022/02/13 04:54:47;;;;;;;2.58;2.20;;;5.40;99.90;;;;;;5028667;28;20243;-51
2022/02/13 04:57:17;;;;;;;2.55;2.35;;;5.40;99.90;;;;;;5025521;28;20267;-52
2022/02/13 04:59:45;;;;;;;2.55;2.28;;;5.40;99.90;;;;;;5010140;28;20276;-51
2022/02/13 05:02:13;;;;;;;3.50;2.47;;;5.40;99.90;;;;;;5027873;28;20221;-51
2022/02/13 05:04:41;;;;;;;1.95;1.77;;;5.40;99.90;;;;;;5026639;28;20224;-52
2022/02/13 05:07:09;;;;;;;1.95;1.55;;;5.30;99.90;;;;;;5031767;28;20217;-52
2022/02/13 05:09:37;;;;;;;3.92;2.42;;;5.40;99.90;;;;;;5031421;28;20740;-52
2022/02/13 05:12:06;;;;;;;3.25;2.15;;;5.40;99.90;;;;;;5031718;28;20225;-51
2022/02/13 05:14:35;;;;;;;2.92;2.67;;;5.30;99.90;;;;;;5012246;28;20272;-52
2022/02/13 05:17:08;;;;;;;3.25;2.40;;;5.30;99.90;;;;;;5031264;28;20709;-52
2022/02/13 05:19:36;;;;;;;2.97;2.65;;;5.30;99.90;;;;;;5027374;28;20263;-53
2022/02/13 05:22:05;;;;;;;3.92;2.47;;;5.30;99.90;;;;;;5030964;28;20621;-53
2022/02/13 05:24:36;;;;;;;3.45;2.40;;;5.30;99.90;;;;;;5030866;28;20691;-52
2022/02/13 05:27:05;;;;;;;3.00;2.28;;;5.30;99.90;;;;;;5030417;28;20227;-52
2022/02/13 05:29:35;;;;;;;2.72;2.15;;;5.30;99.90;;;;;;5017164;28;20707;-53
2022/02/13 05:32:05;;;;;;;3.47;2.42;;;5.30;99.90;;;;;;5031421;28;20639;-53
2022/02/13 05:34:33;;;;;;;2.33;2.13;;;5.30;99.90;;;;;;5025294;28;20217;-53
2022/02/13 05:37:01;;;;;;;1.83;1.70;;;5.30;99.90;;;;;;5013710;28;20216;-54
2022/02/13 05:39:29;;;;;;;2.10;1.73;;;5.30;99.90;;;;;;5031983;28;20239;-52
2022/02/13 05:41:58;;;;;;;2.75;1.83;;;5.30;99.90;;;;;;5022890;28;20729;-54
2022/02/13 05:44:26;;;;;;;1.65;1.55;;;5.30;99.90;;;;;;5015077;28;20201;-51
2022/02/13 05:46:55;;;;;;;3.30;2.42;;;5.30;99.90;;;;;;5031313;28;20271;-51
2022/02/13 05:49:24;;;;;;;2.80;2.60;;;5.30;99.90;;;;;;5024385;28;20193;-53
2022/02/13 05:51:53;;;;;;;2.55;2.35;;;5.30;99.90;;;;;;5030864;28;20244;-52
2022/02/13 05:54:24;;;;;;;3.53;2.50;;;5.30;99.90;;;;;;5032387;28;20514;-52
2022/02/13 05:56:52;;;;;;;2.08;1.88;;;5.30;99.90;;;;;;5028716;28;20216;-53
2022/02/13 05:59:20;;;;;;;2.97;2.15;;;5.30;99.90;;;;;;5045192;28;20238;-53
2022/02/13 06:01:48;;;;;;;2.25;2.00;;;5.20;99.90;;;;;;5050806;28;20195;-52
2022/02/13 06:04:17;;;;;;;2.80;2.60;;;5.20;99.90;;;;;;5032095;28;20252;-50
2022/02/13 06:06:48;;;;;;;2.30;2.10;;;5.30;99.90;;;;;;5011104;28;20604;-53
2022/02/13 06:09:16;;;;;;;3.80;2.80;;;5.20;99.90;;;;;;5042025;28;20751;-53
2022/02/13 06:11:45;;;;;;;2.38;1.90;;;5.20;99.90;;;;;;5041918;28;20646;-53
2022/02/13 06:14:13;;;;;;;2.58;2.15;;;5.20;99.90;;;;;;5024795;28;20683;-53
2022/02/13 06:16:41;;;;;;;3.65;2.60;;;5.20;99.90;;;;;;5030657;28;20197;-52
2022/02/13 06:19:10;;;;;;;3.25;2.53;;;5.20;99.90;;;;;;5029107;28;20260;-52
2022/02/13 06:21:39;;;;;;;5.00;2.60;;;5.20;99.90;;;;;;5030638;28;20205;-53
2022/02/13 06:24:07;;;;;;;1.73;1.63;;;5.20;99.90;;;;;;5029269;28;20774;-50
2022/02/13 06:26:35;;;;;;;2.65;2.25;;;5.20;99.90;;;;;;5029792;28;20711;-51
2022/02/13 06:29:04;;;;;;;3.63;2.45;;;5.20;99.90;;;;;;5030680;28;20719;-52
2022/02/13 06:31:35;;;;;;;2.10;1.90;;;5.20;99.90;;;;;;5029289;28;20280;-52
2022/02/13 06:34:03;;;;;;;3.63;2.63;;;5.20;99.90;;;;;;5010750;28;20201;-53
2022/02/13 06:36:31;;;;;;;3.47;2.30;;;5.20;99.90;;;;;;5030605;28;20297;-52
2022/02/13 06:39:00;;;;;;;2.65;2.38;;;5.20;99.90;;;;;;5029551;28;20233;-51
2022/02/13 06:41:28;;;;;;;3.30;2.22;;;5.20;99.90;;;;;;5030799;28;20260;-52
2022/02/13 06:43:58;;;;;;;2.38;2.17;;;5.20;99.90;;;;;;5027835;28;20224;-54
2022/02/13 06:46:26;;;;;;;4.05;2.75;;;5.20;99.90;;;;;;5012553;28;20213;-53
2022/02/13 06:48:54;;;;;;;3.25;2.22;;;5.20;99.90;;;;;;5023453;28;20276;-52
2022/02/13 06:51:22;;;;;;;2.95;2.45;;;5.20;99.90;;;;;;5029590;28;20752;-54
2022/02/13 06:53:51;;;;;;;3.63;2.47;;;5.20;99.90;;;;;;5029082;28;20220;-51
2022/02/13 06:56:20;;;;;;;3.20;2.42;;;5.20;99.90;;;;;;5029482;28;20185;-50
2022/02/13 06:58:48;;;;;;;2.40;2.20;;;5.20;99.90;;;;;;5024474;28;20344;-53
2022/02/13 07:01:16;;;;;;;2.80;2.60;;;5.20;99.90;;;;;;5029025;28;20631;-52
2022/02/13 07:03:44;;;;;;;4.38;3.30;;;5.20;99.90;;;;;;5024580;28;20300;-52
2022/02/13 07:06:13;;;;;;;3.10;2.60;;;5.20;99.90;;;;;;5021809;28;20586;-53
2022/02/13 07:08:42;;;;;;;3.00;2.70;;;5.20;99.90;;;;;;5027714;28;20255;-51
2022/02/13 07:11:10;;;;;;;3.47;2.75;;;5.20;99.90;;;;;;5029929;28;20639;-51
2022/02/13 07:13:39;;;;;;;5.03;2.15;;;5.10;99.90;;;;;;5018182;28;20229;-52
2022/02/13 07:16:07;;;;;;;3.08;2.83;;;5.10;99.90;;;;;;5010088;28;20240;-53
2022/02/13 07:18:35;;;;;;;3.90;2.70;;;5.20;99.90;;;;;;5025168;28;20225;-52
2022/02/13 07:21:03;;;;;;;2.63;2.42;;;5.20;99.90;;;;;;5025681;28;20573;-50
2022/02/13 07:23:32;;;;;;;3.55;2.75;;;5.10;99.90;;;;;;5011072;28;20232;-52
2022/02/13 07:26:00;;;;;;;3.97;2.88;;;5.20;99.90;;;;;;5044720;28;20283;-54
2022/02/13 07:31:15;;;;;;;3.70;2.40;;;5.10;99.90;;;;;;5029918;28;20337;-52
2022/02/13 07:33:43;;;;;;;2.88;2.45;;;5.20;99.90;;;;;;5007150;28;20301;-53
2022/02/13 07:36:11;;;;;;;3.25;2.45;;;5.10;99.90;;;;;;4998684;28;20181;-53
2022/02/13 07:38:40;;;;;;;3.22;2.92;;;5.10;99.90;;;;;;5029278;28;20247;-51
2022/02/13 07:41:08;;;;;;;4.05;2.60;;;5.10;99.90;;;;;;5030057;28;20221;-54
2022/02/13 07:43:36;;;;;;;4.30;2.42;;;5.10;99.90;;;;;;5027509;28;20221;-54
2022/02/13 07:46:05;;;;;;;3.47;2.97;;;5.10;99.90;;;;;;5029756;28;20209;-53
2022/02/13 07:48:35;;;;;;;2.80;2.50;;;5.10;99.90;;;;;;5025838;28;20226;-53
2022/02/13 07:51:04;;;;;;;4.55;2.88;;;5.10;99.90;;;;;;5009950;28;20697;-52
2022/02/13 07:53:32;;;;;;;3.55;2.60;;;5.10;99.90;;;;;;5009381;28;20221;-54
2022/02/13 07:56:00;;;;;;;3.17;2.88;;;5.10;99.90;;;;;;5009426;28;20197;-54
2022/02/13 07:58:32;;;;;;;4.90;3.70;;;5.10;99.90;;;;;;5026423;28;20229;-53
2022/02/13 08:01:06;;;;;;;2.95;2.65;;;5.10;99.90;;;;;;5030116;28;20244;-51
2022/02/13 08:03:36;;;;;;;3.47;3.10;;;5.10;99.90;;;;;;5025470;28;20216;-53
2022/02/13 08:06:05;;;;;;;3.08;2.50;;;5.10;99.90;;;;;;5009443;28;20344;-54
2022/02/13 08:08:36;;;;;;;3.05;2.85;;;5.10;99.90;;;;;;5009077;28;20612;-52
2022/02/13 08:11:05;;;;;;;2.90;2.58;;;5.10;99.90;;;;;;5008703;28;20210;-53
2022/02/13 08:13:34;;;;;;;2.92;2.65;;;5.10;99.90;;;;;;5022250;28;20641;-51
2022/02/13 08:16:03;;;;;;;4.18;3.15;;;5.10;99.90;;;;;;5012095;28;20196;-53
2022/02/13 08:18:33;;;;;;;3.03;2.70;;;5.10;99.90;;;;;;5027343;28;20290;-53
2022/02/13 08:21:04;;;;;;;3.60;2.80;;;5.10;99.90;;;;;;5029045;28;20702;-53
2022/02/13 08:23:32;;;;;;;3.78;2.58;;;5.10;99.90;;;;;;5028738;28;20228;-51
2022/02/13 08:26:02;;;;;;;3.00;2.40;;;5.10;99.90;;;;;;5028651;28;20228;-53
2022/02/13 08:28:33;;;;;;;6.55;2.78;;;5.10;99.90;;;;;;5012388;28;20669;-53
2022/02/13 08:31:03;;;;;;;3.95;3.13;;;5.10;99.90;;;;;;4992177;28;20233;-51
2022/02/13 08:33:32;;;;;;;4.30;3.40;;;5.10;99.90;;;;;;4997402;28;20271;-53
2022/02/13 08:36:01;;;;;;;4.90;3.53;;;5.10;99.90;;;;;;5019563;28;20189;-52
2022/02/13 08:38:31;;;;;;;3.22;2.78;;;5.10;99.90;;;;;;5028288;28;20708;-53
2022/02/13 08:41:01;;;;;;;3.67;2.72;;;5.10;99.90;;;;;;5014819;28;20220;-52
2022/02/13 08:43:29;;;;;;;3.42;3.05;;;5.10;99.90;;;;;;5025014;28;20228;-51
2022/02/13 08:45:58;;;;;;;6.45;2.53;;;5.10;99.90;;;;;;5012794;28;20214;-53
2022/02/13 08:48:27;;;;;;;3.58;3.28;;;5.20;99.90;;;;;;5011600;28;20260;-52
2022/02/13 08:50:55;;;;;;;4.18;2.92;;;5.20;99.90;;;;;;5033257;28;20621;-55
2022/02/13 08:53:25;;;;;;;2.63;2.20;;;5.20;99.90;;;;;;5032295;28;20229;-51
2022/02/13 08:55:55;;;;;;;3.67;2.40;;;5.20;99.90;;;;;;5031412;28;20231;-54
2022/02/13 08:58:24;;;;;;;3.47;2.35;;;5.20;99.90;;;;;;5012173;28;20225;-53
2022/02/13 09:00:53;;;;;;;2.70;2.10;;;5.20;99.90;;;;;;5012930;28;20205;-50
2022/02/13 09:03:22;;;;;;;3.42;2.28;;;5.20;99.90;;;;;;5011699;28;20225;-54
2022/02/13 09:05:50;;;;;;;4.57;2.60;;;5.20;99.90;;;;;;5015662;28;20212;-55
2022/02/13 09:08:19;;;;;;;2.70;2.50;;;5.20;99.90;;;;;;4998196;28;20217;-52
2022/02/13 09:10:47;;;;;;;2.60;2.40;;;5.20;99.90;;;;;;5031766;28;20233;-53
2022/02/13 09:13:19;;;;;;;4.72;2.30;;;5.30;99.90;;;;;;5026098;28;20232;-52
2022/02/13 09:15:47;;;;;;;3.67;2.42;;;5.30;99.90;;;;;;5032020;28;20197;-52
2022/02/13 09:18:18;;;;;;;3.17;1.95;;;5.30;99.90;;;;;;5030839;28;20227;-53
2022/02/13 09:20:48;;;;;;;2.55;2.35;;;5.30;99.90;;;;;;5031143;28;20241;-54
2022/02/13 09:23:21;;;;;;;3.97;2.20;;;5.30;99.90;;;;;;5031954;28;20252;-54
2022/02/13 09:25:51;;;;;;;2.38;2.17;;;5.30;99.90;;;;;;5020686;28;20851;-53
2022/02/13 09:28:22;;;;;;;2.80;2.30;;;5.30;99.90;;;;;;5030171;28;20217;-54
2022/02/13 09:30:50;;;;;;;3.00;2.20;;;5.30;99.90;;;;;;5031879;28;20708;-54
2022/02/13 09:33:24;;;;;;;3.47;2.85;;;5.30;99.90;;;;;;5029006;28;20299;-52
2022/02/13 09:35:54;;;;;;;2.90;2.55;;;5.30;99.90;;;;;;5012411;28;20201;-53
2022/02/13 09:38:23;;;;;;;3.78;2.35;;;5.30;99.90;;;;;;5010710;28;20345;-55
2022/02/13 09:40:52;;;;;;;4.10;2.58;;;5.40;99.90;;;;;;5030317;28;20324;-51
2022/02/13 09:43:22;;;;;;;2.42;2.10;;;5.40;99.90;;;;;;5024736;28;20225;-52
2022/02/13 09:45:53;;;;;;;3.45;2.28;;;5.30;99.90;;;;;;5031319;28;20190;-55
2022/02/13 09:48:25;;;;;;;2.83;2.22;;;5.30;99.90;;;;;;5011518;28;20636;-52
2022/02/13 09:50:55;;;;;;;3.72;2.25;;;5.30;99.90;;;;;;5011499;28;20221;-53
2022/02/13 09:53:24;;;;;;;2.30;2.05;;;5.40;99.90;;;;;;5011399;28;20213;-54
2022/02/13 09:55:52;;;;;;;2.15;1.90;;;5.40;99.90;;;;;;5011336;28;20565;-51
2022/02/13 09:58:22;;;;;;;2.75;2.10;;;5.40;99.90;;;;;;5016198;28;20401;-55
2022/02/13 10:00:57;;;;;;;2.92;1.70;;;5.40;99.90;;;;;;5012061;28;20213;-51
2022/02/13 10:03:29;;;;;;;2.03;1.90;;;5.40;99.90;;;;;;5010685;28;20225;-53
2022/02/13 10:06:00;;;;;;;3.00;2.25;;;5.40;99.90;;;;;;5011351;28;20194;-51
2022/02/13 10:08:38;;;;;;;2.53;2.33;;;5.40;99.90;;;;;;5026899;28;20718;-52
2022/02/13 10:11:19;;;;;;;2.05;1.92;;;5.40;99.90;;;;;;5031778;28;20232;-53
2022/02/13 10:13:56;;;;;;;2.20;2.00;;;5.40;99.90;;;;;;5013244;28;20298;-51
2022/02/13 10:16:30;;;;;;;2.35;2.00;;;5.40;99.90;;;;;;5011741;28;20642;-52
2022/02/13 10:19:05;;;;;;;3.70;2.10;;;5.40;99.90;;;;;;5010806;28;20683;-52
2022/02/13 10:21:38;;;;;;;4.43;2.10;;;5.40;99.90;;;;;;5026494;28;20193;-54
2022/02/13 10:24:26;;;;;;;2.40;2.20;;;5.40;99.90;;;;;;5030026;28;20296;-52
2022/02/13 10:27:07;;;;;;;2.72;2.13;;;5.40;99.90;;;;;;5030782;28;20233;-52
2022/02/13 10:29:39;;;;;;;3.78;2.55;;;5.40;99.90;;;;;;5010887;28;20697;-54
2022/02/13 10:32:16;;;;;;;2.58;2.30;;;5.40;99.90;;;;;;5010748;28;20233;-52
2022/02/13 10:35:00;;;;;;;4.25;2.03;;;5.40;99.90;;;;;;5010751;28;20604;-53
2022/02/13 10:37:45;;;;;;;3.47;2.17;;;5.40;99.90;;;;;;5010705;28;20224;-52
2022/02/13 10:40:20;;;;;;;3.03;1.95;;;5.40;99.90;;;;;;5023636;28;20541;-52
2022/02/13 10:43:03;;;;;;;2.60;2.15;;;5.40;99.90;;;;;;5018843;28;20423;-52
2022/02/13 10:45:35;;;;;;;2.38;2.17;;;5.40;99.90;;;;;;5030075;28;20200;-52
2022/02/13 10:48:06;;;;;;;2.95;2.30;;;5.40;99.90;;;;;;5030064;28;20225;-53
2022/02/13 10:50:39;;;;;;;2.30;1.90;;;5.40;99.90;;;;;;5011573;28;20244;-51
2022/02/13 10:53:10;;;;;;;2.80;2.40;;;5.40;99.90;;;;;;5027541;28;20225;-53
2022/02/13 10:55:40;;;;;;;2.20;2.00;;;5.40;99.90;;;;;;5042141;28;20196;-51
2022/02/13 10:58:10;;;;;;;3.42;1.85;;;5.40;99.90;;;;;;5041290;28;20715;-53
2022/02/13 11:00:55;;;;;;;2.85;2.30;;;5.40;99.90;;;;;;5037509;28;20299;-55
2022/02/13 11:03:27;;;;;;;3.10;2.10;;;5.40;99.90;;;;;;5033468;28;20215;-54
2022/02/13 11:05:59;;;;;;;2.58;1.90;;;5.40;99.90;;;;;;5033072;28;20184;-52
2022/02/13 11:08:32;;;;;;;2.40;1.75;;;5.40;99.90;;;;;;5042651;28;20224;-53
2022/02/13 11:11:02;;;;;;;2.70;2.38;;;5.40;99.90;;;;;;5048532;28;20216;-54
2022/02/13 11:13:33;;;;;;;2.20;1.70;;;5.40;99.90;;;;;;5040604;28;20218;-52
2022/02/13 11:16:25;;;;;;;2.80;2.03;;;5.40;99.90;;;;;;5029863;28;20189;-52
2022/02/13 11:18:58;;;;;;;2.90;1.95;;;5.40;99.90;;;;;;5039587;28;20220;-52
2022/02/13 11:21:30;;;;;;;2.60;2.20;;;5.40;99.90;;;;;;5035173;28;20683;-53
2022/02/13 11:24:03;;;;;;;2.92;1.95;;;5.40;99.90;;;;;;5049276;28;20266;-53
2022/02/13 11:26:38;;;;;;;2.55;2.30;;;5.40;99.90;;;;;;5048954;28;20188;-53
2022/02/13 11:29:08;;;;;;;2.42;2.20;;;5.40;99.90;;;;;;5028625;28;20216;-52
2022/02/13 11:31:42;;;;;;;3.95;2.28;;;5.40;99.90;;;;;;5033480;28;20211;-50
2022/02/13 11:34:16;;;;;;;3.05;2.58;;;5.40;99.90;;;;;;5035373;28;20247;-54
2022/02/13 11:36:49;;;;;;;2.92;2.40;;;5.40;99.90;;;;;;5043523;28;20227;-54
2022/02/13 11:39:37;;;;;;;3.65;2.35;;;5.40;99.90;;;;;;5037070;28;20230;-52
2022/02/13 11:42:15;;;;;;;2.58;2.10;;;5.40;99.90;;;;;;4992564;28;20221;-53
2022/02/13 11:44:54;;;;;;;2.90;1.83;;;5.40;99.90;;;;;;5044976;28;20184;-51
2022/02/13 11:47:41;;;;;;;3.70;2.40;;;5.50;99.90;;;;;;5036882;28;20231;-52
2022/02/13 11:50:26;;;;;;;2.58;2.35;;;5.40;99.90;;;;;;5027386;28;20225;-52
2022/02/13 11:53:06;;;;;;;1.63;1.52;;;5.40;99.90;;;;;;5043615;28;20254;-53
2022/02/13 11:55:38;;;;;;;4.45;2.10;;;5.40;99.90;;;;;;5028663;28;20224;-53
2022/02/13 11:58:14;;;;;;;2.42;2.22;;;5.40;99.90;;;;;;5017751;28;20221;-51
2022/02/13 12:00:47;;;;;;;3.80;1.90;;;5.40;99.90;;;;;;4992199;28;20216;-52
2022/02/13 12:03:27;;;;;;;1.75;1.65;;;5.50;99.90;;;;;;5009554;28;20593;-54
2022/02/13 12:06:32;;;;;;;2.50;1.90;;;5.40;99.90;;;;;;5019492;28;20590;-53
2022/02/13 12:09:02;;;;;;;4.40;2.55;;;5.50;99.90;;;;;;5028350;28;20245;-52
2022/02/13 12:11:37;;;;;;;2.78;2.15;;;5.50;99.90;;;;;;5031893;28;20273;-53
2022/02/13 12:14:18;;;;;;;2.08;1.92;;;5.40;99.90;;;;;;5033011;28;20737;-52
2022/02/13 12:16:57;;;;;;;3.80;2.50;;;5.50;99.90;;;;;;5033106;28;20820;-54
2022/02/13 12:19:31;;;;;;;2.33;1.85;;;5.50;99.90;;;;;;5015382;28;20227;-51
2022/02/13 12:22:09;;;;;;;3.15;2.80;;;5.50;99.90;;;;;;5045533;28;20208;-52
2022/02/13 12:24:42;;;;;;;4.40;2.80;;;5.50;99.90;;;;;;5038668;28;20197;-52
2022/02/13 12:27:13;;;;;;;2.63;2.10;;;5.50;99.90;;;;;;5028422;28;20488;-53
2022/02/13 12:29:51;;;;;;;5.05;2.72;;;5.50;99.90;;;;;;5033297;28;20209;-51
2022/02/13 12:32:20;;;;;;;2.72;2.15;;;5.50;99.90;;;;;;5032678;28;20220;-53
2022/02/13 12:34:59;;;;;;;2.63;2.33;;;5.50;99.90;;;;;;5032092;28;20433;-54
2022/02/13 12:37:34;;;;;;;2.75;1.98;;;5.50;99.90;;;;;;5031655;28;20224;-54
2022/02/13 12:40:05;;;;;;;2.63;2.35;;;5.50;99.90;;;;;;5039731;28;20217;-52
2022/02/13 12:42:35;;;;;;;2.00;1.80;;;5.50;99.90;;;;;;5031578;28;20240;-55
2022/02/13 12:45:08;;;;;;;2.22;1.95;;;5.50;99.90;;;;;;5021767;28;20200;-53
2022/02/13 12:47:39;;;;;;;3.33;2.72;;;5.50;99.90;;;;;;5038736;28;20216;-53
2022/02/13 12:50:11;;;;;;;3.35;2.55;;;5.50;99.90;;;;;;5017554;28;20692;-50
2022/02/13 12:52:41;;;;;;;3.90;3.20;;;5.50;99.90;;;;;;5017308;28;20270;-51
2022/02/13 12:55:11;;;;;;;5.38;3.85;;;5.50;99.90;;;;;;5051036;28;20698;-49
2022/02/13 12:57:41;;;;;;;4.82;3.90;;;5.60;99.90;;;;;;5028729;28;20275;-51
2022/02/13 13:00:18;;;;;;;7.20;4.80;;;5.60;99.90;;;;;;5031666;28;20216;-50
2022/02/13 13:02:54;;;;;;;10.48;5.70;;;5.70;99.90;;;;;;5046868;28;20224;-51
2022/02/13 13:05:29;;;;;;;5.50;4.72;;;5.80;99.90;;;;;;5030327;28;20268;-50
2022/02/13 13:08:11;;;;;;;8.15;5.63;;;5.80;99.90;;;;;;5044183;28;20573;-52
2022/02/13 13:10:54;;;;;;;8.20;5.70;;;5.80;99.90;;;;;;5041279;28;20232;-52
2022/02/13 13:13:33;;;;;;;11.48;5.30;;;5.90;99.90;;;;;;5031612;28;20212;-54
2022/02/13 13:16:04;;;;;;;9.13;4.80;;;5.90;99.90;;;;;;5050586;28;20192;-54
2022/02/13 13:18:35;;;;;;;6.00;5.40;;;5.90;99.90;;;;;;5011271;28;20506;-53